sensor_id;sensor_type;location;lat;lon;timestamp;P1;durP1;ratioP1;P2;durP2;ratioP2
19863;SDS011;10094;48.820;9.226;2023-02-21T00:06:52;10.75;;;6.55;;
19863;SDS011;10094;48.820;9.226;2023-02-21T00:13:53;11.75;;;6.28;;
19863;SDS011;10094;48.820;9.226;2023-02-21T00:20:54;19.52;;;6.97;;
19863;SDS011;10094;48.820;9.226;2023-02-21T00:27:56;11.13;;;6.70;;
19863;SDS011;10094;48.820;9.226;2023-02-21T00:34:59;14.10;;;6.75;;
19863;SDS011;10094;48.820;9.226;2023-02-21T00:42:01;8.80;;;5.82;;
19863;SDS011;10094;48.820;9.226;2023-02-21T00:49:02;11.07;;;6.53;;
19863;SDS011;10094;48.820;9.226;2023-02-21T00:56:04;17.17;;;7.05;;
19863;SDS011;10094;48.820;9.226;2023-02-21T01:03:05;11.35;;;6.60;;
19863;SDS011;10094;48.820;9.226;2023-02-21T01:10:07;17.27;;;7.95;;
19863;SDS011;10094;48.820;9.226;2023-02-21T01:17:08;13.50;;;7.15;;
19863;SDS011;10094;48.820;9.226;2023-02-21T01:24:12;11.40;;;7.35;;
19863;SDS011;10094;48.820;9.226;2023-02-21T01:31:18;11.13;;;6.18;;
19863;SDS011;10094;48.820;9.226;2023-02-21T01:38:20;11.13;;;6.43;;
19863;SDS011;10094;48.820;9.226;2023-02-21T01:52:22;10.43;;;6.00;;
19863;SDS011;10094;48.820;9.226;2023-02-21T01:59:24;8.93;;;5.43;;
19863;SDS011;10094;48.820;9.226;2023-02-21T02:06:26;11.75;;;6.35;;
19863;SDS011;10094;48.820;9.226;2023-02-21T02:20:42;10.52;;;6.18;;
19863;SDS011;10094;48.820;9.226;2023-02-21T02:42:47;11.60;;;5.85;;
19863;SDS011;10094;48.820;9.226;2023-02-21T02:49:21;8.23;;;5.10;;
19863;SDS011;10094;48.820;9.226;2023-02-21T02:56:10;10.95;;;6.03;;
19863;SDS011;10094;48.820;9.226;2023-02-21T03:17:16;11.90;;;6.55;;
19863;SDS011;10094;48.820;9.226;2023-02-21T03:24:01;12.63;;;6.35;;
19863;SDS011;10094;48.820;9.226;2023-02-21T03:30:47;13.43;;;6.32;;
19863;SDS011;10094;48.820;9.226;2023-02-21T03:37:35;13.23;;;6.00;;
19863;SDS011;10094;48.820;9.226;2023-02-21T03:44:26;11.52;;;5.68;;
19863;SDS011;10094;48.820;9.226;2023-02-21T03:51:09;11.60;;;6.88;;
19863;SDS011;10094;48.820;9.226;2023-02-21T03:57:52;9.50;;;5.50;;
19863;SDS011;10094;48.820;9.226;2023-02-21T04:04:34;11.80;;;6.18;;
19863;SDS011;10094;48.820;9.226;2023-02-21T04:11:27;11.60;;;6.30;;
19863;SDS011;10094;48.820;9.226;2023-02-21T04:18:09;14.88;;;6.72;;
19863;SDS011;10094;48.820;9.226;2023-02-21T04:24:52;11.05;;;5.85;;
19863;SDS011;10094;48.820;9.226;2023-02-21T04:31:37;12.35;;;6.70;;
19863;SDS011;10094;48.820;9.226;2023-02-21T04:38:24;11.27;;;5.68;;
19863;SDS011;10094;48.820;9.226;2023-02-21T04:45:07;14.60;;;6.63;;
19863;SDS011;10094;48.820;9.226;2023-02-21T04:51:50;9.60;;;6.28;;
19863;SDS011;10094;48.820;9.226;2023-02-21T04:58:33;13.23;;;6.45;;
19863;SDS011;10094;48.820;9.226;2023-02-21T05:05:26;11.10;;;6.90;;
19863;SDS011;10094;48.820;9.226;2023-02-21T05:12:08;11.18;;;7.00;;
19863;SDS011;10094;48.820;9.226;2023-02-21T05:18:52;19.10;;;7.55;;
19863;SDS011;10094;48.820;9.226;2023-02-21T05:25:35;19.75;;;10.20;;
19863;SDS011;10094;48.820;9.226;2023-02-21T05:32:18;14.60;;;8.70;;
19863;SDS011;10094;48.820;9.226;2023-02-21T05:39:02;14.48;;;9.18;;
19863;SDS011;10094;48.820;9.226;2023-02-21T05:45:45;15.95;;;8.40;;
19863;SDS011;10094;48.820;9.226;2023-02-21T05:52:28;12.45;;;8.75;;
19863;SDS011;10094;48.820;9.226;2023-02-21T05:59:10;16.90;;;9.52;;
19863;SDS011;10094;48.820;9.226;2023-02-21T06:05:53;18.70;;;7.95;;
19863;SDS011;10094;48.820;9.226;2023-02-21T06:12:35;12.27;;;7.68;;
19863;SDS011;10094;48.820;9.226;2023-02-21T06:19:18;12.82;;;8.27;;
19863;SDS011;10094;48.820;9.226;2023-02-21T06:26:00;10.40;;;6.90;;
19863;SDS011;10094;48.820;9.226;2023-02-21T06:32:42;15.95;;;7.57;;
19863;SDS011;10094;48.820;9.226;2023-02-21T06:39:25;11.80;;;7.45;;
19863;SDS011;10094;48.820;9.226;2023-02-21T06:46:07;13.60;;;7.05;;
19863;SDS011;10094;48.820;9.226;2023-02-21T06:52:50;10.20;;;7.20;;
19863;SDS011;10094;48.820;9.226;2023-02-21T06:59:32;17.27;;;8.60;;
19863;SDS011;10094;48.820;9.226;2023-02-21T07:06:14;14.73;;;7.25;;
19863;SDS011;10094;48.820;9.226;2023-02-21T07:12:57;12.60;;;7.32;;
19863;SDS011;10094;48.820;9.226;2023-02-21T07:19:39;10.93;;;8.10;;
19863;SDS011;10094;48.820;9.226;2023-02-21T07:26:23;18.65;;;7.40;;
19863;SDS011;10094;48.820;9.226;2023-02-21T07:33:05;14.70;;;7.55;;
19863;SDS011;10094;48.820;9.226;2023-02-21T07:39:47;14.00;;;8.50;;
19863;SDS011;10094;48.820;9.226;2023-02-21T07:46:30;18.70;;;8.48;;
19863;SDS011;10094;48.820;9.226;2023-02-21T07:53:15;18.00;;;8.25;;
19863;SDS011;10094;48.820;9.226;2023-02-21T07:59:58;16.95;;;7.82;;
19863;SDS011;10094;48.820;9.226;2023-02-21T08:06:40;11.75;;;7.57;;
19863;SDS011;10094;48.820;9.226;2023-02-21T08:13:22;12.93;;;6.95;;
19863;SDS011;10094;48.820;9.226;2023-02-21T08:20:05;14.73;;;7.80;;
19863;SDS011;10094;48.820;9.226;2023-02-21T08:26:49;15.25;;;7.65;;
19863;SDS011;10094;48.820;9.226;2023-02-21T08:33:31;13.45;;;7.32;;
19863;SDS011;10094;48.820;9.226;2023-02-21T08:40:14;14.80;;;7.45;;
19863;SDS011;10094;48.820;9.226;2023-02-21T08:46:59;13.43;;;6.65;;
19863;SDS011;10094;48.820;9.226;2023-02-21T08:53:42;12.90;;;6.40;;
19863;SDS011;10094;48.820;9.226;2023-02-21T09:00:24;11.25;;;7.10;;
19863;SDS011;10094;48.820;9.226;2023-02-21T09:07:10;10.63;;;6.80;;
19863;SDS011;10094;48.820;9.226;2023-02-21T09:13:56;10.60;;;6.45;;
19863;SDS011;10094;48.820;9.226;2023-02-21T09:20:38;9.57;;;6.13;;
19863;SDS011;10094;48.820;9.226;2023-02-21T09:27:23;14.15;;;6.40;;
19863;SDS011;10094;48.820;9.226;2023-02-21T09:34:17;15.48;;;6.80;;
19863;SDS011;10094;48.820;9.226;2023-02-21T09:41:03;12.20;;;5.95;;
19863;SDS011;10094;48.820;9.226;2023-02-21T09:47:48;9.45;;;5.40;;
19863;SDS011;10094;48.820;9.226;2023-02-21T09:54:42;15.27;;;5.57;;
19863;SDS011;10094;48.820;9.226;2023-02-21T10:01:34;8.57;;;5.30;;
19863;SDS011;10094;48.820;9.226;2023-02-21T10:08:49;15.00;;;6.18;;
19863;SDS011;10094;48.820;9.226;2023-02-21T10:16:07;8.05;;;4.65;;
19863;SDS011;10094;48.820;9.226;2023-02-21T10:22:59;12.85;;;4.75;;
19863;SDS011;10094;48.820;9.226;2023-02-21T10:44:41;6.90;;;3.95;;
19863;SDS011;10094;48.820;9.226;2023-02-21T10:51:28;7.35;;;3.72;;
19863;SDS011;10094;48.820;9.226;2023-02-21T10:58:16;5.10;;;3.42;;
19863;SDS011;10094;48.820;9.226;2023-02-21T11:05:11;10.23;;;3.25;;
19863;SDS011;10094;48.820;9.226;2023-02-21T11:12:04;5.32;;;3.53;;
19863;SDS011;10094;48.820;9.226;2023-02-21T11:19:03;4.22;;;3.08;;
19863;SDS011;10094;48.820;9.226;2023-02-21T11:25:47;4.40;;;3.10;;
19863;SDS011;10094;48.820;9.226;2023-02-21T11:32:36;5.07;;;2.97;;
19863;SDS011;10094;48.820;9.226;2023-02-21T11:39:22;6.72;;;2.60;;
19863;SDS011;10094;48.820;9.226;2023-02-21T11:53:04;3.67;;;2.30;;
19863;SDS011;10094;48.820;9.226;2023-02-21T12:07:00;5.72;;;2.42;;
19863;SDS011;10094;48.820;9.226;2023-02-21T12:49:43;2.15;;;1.95;;
19863;SDS011;10094;48.820;9.226;2023-02-21T13:03:34;2.35;;;1.67;;
19863;SDS011;10094;48.820;9.226;2023-02-21T13:10:22;5.57;;;2.00;;
19863;SDS011;10094;48.820;9.226;2023-02-21T13:17:09;2.20;;;1.63;;
19863;SDS011;10094;48.820;9.226;2023-02-21T13:23:58;2.95;;;1.50;;
19863;SDS011;10094;48.820;9.226;2023-02-21T13:31:21;1.90;;;1.50;;
19863;SDS011;10094;48.820;9.226;2023-02-21T13:38:09;2.67;;;1.60;;
19863;SDS011;10094;48.820;9.226;2023-02-21T13:44:54;2.08;;;1.60;;
19863;SDS011;10094;48.820;9.226;2023-02-21T13:52:13;4.70;;;1.95;;
19863;SDS011;10094;48.820;9.226;2023-02-21T13:59:51;4.70;;;2.20;;
19863;SDS011;10094;48.820;9.226;2023-02-21T14:06:24;3.55;;;1.58;;
19863;SDS011;10094;48.820;9.226;2023-02-21T14:20:20;4.13;;;1.45;;
19863;SDS011;10094;48.820;9.226;2023-02-21T14:27:04;1.70;;;1.60;;
19863;SDS011;10094;48.820;9.226;2023-02-21T14:34:07;3.88;;;1.40;;
19863;SDS011;10094;48.820;9.226;2023-02-21T14:41:10;2.72;;;1.35;;
19863;SDS011;10094;48.820;9.226;2023-02-21T14:55:17;2.95;;;1.45;;
19863;SDS011;10094;48.820;9.226;2023-02-21T15:09:19;1.70;;;1.27;;
19863;SDS011;10094;48.820;9.226;2023-02-21T15:16:04;1.55;;;1.45;;
19863;SDS011;10094;48.820;9.226;2023-02-21T15:22:54;2.03;;;1.15;;
19863;SDS011;10094;48.820;9.226;2023-02-21T15:29:38;5.25;;;1.90;;
19863;SDS011;10094;48.820;9.226;2023-02-21T15:36:21;2.25;;;1.40;;
19863;SDS011;10094;48.820;9.226;2023-02-21T15:43:04;4.47;;;1.73;;
19863;SDS011;10094;48.820;9.226;2023-02-21T16:03:54;4.03;;;2.17;;
19863;SDS011;10094;48.820;9.226;2023-02-21T16:11:02;3.00;;;2.00;;
19863;SDS011;10094;48.820;9.226;2023-02-21T16:17:50;5.03;;;2.65;;
19863;SDS011;10094;48.820;9.226;2023-02-21T16:24:34;4.95;;;2.30;;
19863;SDS011;10094;48.820;9.226;2023-02-21T16:31:25;5.50;;;2.35;;
19863;SDS011;10094;48.820;9.226;2023-02-21T16:38:15;10.85;;;3.42;;
19863;SDS011;10094;48.820;9.226;2023-02-21T16:44:59;4.50;;;2.15;;
19863;SDS011;10094;48.820;9.226;2023-02-21T16:51:42;5.90;;;2.13;;
19863;SDS011;10094;48.820;9.226;2023-02-21T17:05:14;10.23;;;3.08;;
19863;SDS011;10094;48.820;9.226;2023-02-21T17:11:58;4.13;;;3.03;;
19863;SDS011;10094;48.820;9.226;2023-02-21T17:18:43;7.13;;;3.63;;
19863;SDS011;10094;48.820;9.226;2023-02-21T17:25:26;9.88;;;3.90;;
19863;SDS011;10094;48.820;9.226;2023-02-21T17:32:09;9.45;;;4.32;;
19863;SDS011;10094;48.820;9.226;2023-02-21T17:38:52;12.13;;;4.95;;
19863;SDS011;10094;48.820;9.226;2023-02-21T17:45:35;11.35;;;4.15;;
19863;SDS011;10094;48.820;9.226;2023-02-21T17:52:17;10.98;;;5.40;;
19863;SDS011;10094;48.820;9.226;2023-02-21T17:58:59;17.10;;;5.40;;
19863;SDS011;10094;48.820;9.226;2023-02-21T18:05:42;10.93;;;5.70;;
19863;SDS011;10094;48.820;9.226;2023-02-21T18:12:24;12.52;;;4.93;;
19863;SDS011;10094;48.820;9.226;2023-02-21T18:19:07;9.77;;;5.55;;
19863;SDS011;10094;48.820;9.226;2023-02-21T18:25:49;9.38;;;6.18;;
19863;SDS011;10094;48.820;9.226;2023-02-21T18:32:32;10.82;;;6.47;;
19863;SDS011;10094;48.820;9.226;2023-02-21T18:39:15;18.05;;;7.32;;
19863;SDS011;10094;48.820;9.226;2023-02-21T18:45:58;11.77;;;5.68;;
19863;SDS011;10094;48.820;9.226;2023-02-21T18:52:40;11.55;;;6.18;;
19863;SDS011;10094;48.820;9.226;2023-02-21T18:59:23;10.13;;;6.60;;
19863;SDS011;10094;48.820;9.226;2023-02-21T19:06:06;7.80;;;5.00;;
19863;SDS011;10094;48.820;9.226;2023-02-21T19:12:57;12.80;;;7.10;;
19863;SDS011;10094;48.820;9.226;2023-02-21T19:19:40;14.50;;;7.05;;
19863;SDS011;10094;48.820;9.226;2023-02-21T19:26:22;13.55;;;6.20;;
19863;SDS011;10094;48.820;9.226;2023-02-21T19:33:09;10.30;;;6.22;;
19863;SDS011;10094;48.820;9.226;2023-02-21T19:39:52;15.23;;;7.68;;
19863;SDS011;10094;48.820;9.226;2023-02-21T19:46:35;16.85;;;6.32;;
19863;SDS011;10094;48.820;9.226;2023-02-21T19:53:17;11.15;;;7.07;;
19863;SDS011;10094;48.820;9.226;2023-02-21T20:00:00;17.67;;;7.32;;
19863;SDS011;10094;48.820;9.226;2023-02-21T20:06:42;12.98;;;7.25;;
19863;SDS011;10094;48.820;9.226;2023-02-21T20:13:24;14.93;;;7.43;;
19863;SDS011;10094;48.820;9.226;2023-02-21T20:20:07;17.85;;;7.88;;
19863;SDS011;10094;48.820;9.226;2023-02-21T20:26:52;17.45;;;7.13;;
19863;SDS011;10094;48.820;9.226;2023-02-21T20:33:35;11.60;;;6.22;;
19863;SDS011;10094;48.820;9.226;2023-02-21T20:40:18;11.82;;;6.90;;
19863;SDS011;10094;48.820;9.226;2023-02-21T20:47:01;11.13;;;6.97;;
19863;SDS011;10094;48.820;9.226;2023-02-21T20:53:45;10.75;;;6.95;;
19863;SDS011;10094;48.820;9.226;2023-02-21T21:00:27;14.05;;;6.28;;
19863;SDS011;10094;48.820;9.226;2023-02-21T21:07:12;12.32;;;7.22;;
19863;SDS011;10094;48.820;9.226;2023-02-21T21:14:00;10.85;;;6.50;;
19863;SDS011;10094;48.820;9.226;2023-02-21T21:20:43;16.40;;;7.70;;
19863;SDS011;10094;48.820;9.226;2023-02-21T21:27:26;15.32;;;7.25;;
19863;SDS011;10094;48.820;9.226;2023-02-21T21:34:08;15.82;;;7.43;;
19863;SDS011;10094;48.820;9.226;2023-02-21T21:40:52;19.23;;;8.43;;
19863;SDS011;10094;48.820;9.226;2023-02-21T21:47:35;15.02;;;7.65;;
19863;SDS011;10094;48.820;9.226;2023-02-21T21:54:18;17.85;;;7.75;;
19863;SDS011;10094;48.820;9.226;2023-02-21T22:01:06;12.32;;;7.45;;
19863;SDS011;10094;48.820;9.226;2023-02-21T22:07:48;13.13;;;8.77;;
19863;SDS011;10094;48.820;9.226;2023-02-21T22:14:33;18.15;;;9.02;;
19863;SDS011;10094;48.820;9.226;2023-02-21T22:21:15;17.15;;;8.98;;
19863;SDS011;10094;48.820;9.226;2023-02-21T22:28:00;17.73;;;8.20;;
19863;SDS011;10094;48.820;9.226;2023-02-21T22:34:50;12.43;;;8.80;;
19863;SDS011;10094;48.820;9.226;2023-02-21T22:41:32;13.27;;;8.07;;
19863;SDS011;10094;48.820;9.226;2023-02-21T22:48:15;19.50;;;9.30;;
19863;SDS011;10094;48.820;9.226;2023-02-21T22:55:01;18.10;;;8.63;;
19863;SDS011;10094;48.820;9.226;2023-02-21T23:01:43;17.45;;;9.25;;
19863;SDS011;10094;48.820;9.226;2023-02-21T23:08:26;13.80;;;9.27;;
19863;SDS011;10094;48.820;9.226;2023-02-21T23:15:10;15.95;;;8.45;;
19863;SDS011;10094;48.820;9.226;2023-02-21T23:21:59;17.30;;;10.75;;
19863;SDS011;10094;48.820;9.226;2023-02-21T23:28:42;16.15;;;9.25;;
19863;SDS011;10094;48.820;9.226;2023-02-21T23:35:24;16.27;;;9.75;;
19863;SDS011;10094;48.820;9.226;2023-02-21T23:42:08;13.13;;;8.57;;
19863;SDS011;10094;48.820;9.226;2023-02-21T23:48:51;19.50;;;9.55;;
19863;SDS011;10094;48.820;9.226;2023-02-21T23:55:34;20.73;;;9.15;;
